Reilly, Pennsylvania
Current Conditions -  °F | °C
As of 1:58 PM on Thursday 30 Oct 2014 (Local Time) from KMUI Reporting Station
Overcast Overcast  
Wind Chill: 54°   Ceiling: 6000
Heat Index: 54°   Visibility: 10mi
Dew Point: 37°   Wind: 14mph
Humidity: 53%   Direction: 350°N
Pressure: 30.02"   Gusts: 17mph
Location:  40.6756°N, 76.3278°W
Report Text: KMUI 301758Z AUTO 35012G15KT 10SM OVC060 12/03 A3002 RMK AO2 SLP170 6//// T01230030
Loading
Personal Weather Stations






























Interactive Weather Map
Tropical Storm Tracking
New forecast layout! Learn more

10-Day Weather Forecast

Advertisements
Track Severe Weather on mobile